This is the latest recevied weather packets stored in our database for station/object KM4CNW. If no packets are shown the sender has not sent any weather packets the latest 10 day(s).
| Time | Temp. | Humidity | Pressure | Rain* | Wind** | Luminosity | Snow |
|---|---|---|---|---|---|---|---|
| 1777908241 | 21.11° C | 34% | 1011.5 hPa | 0 mm | - | 768 W/m² | - |
| 1777907938 | 21.67° C | 32% | 1011.3 hPa | 0 mm | - | 756 W/m² | - |
| 1777907633 | 21.67° C | 34% | 1011.5 hPa | 0 mm | - | 744 W/m² | - |
| 1777907329 | 21.11° C | 36% | 1011.6 hPa | 0 mm | - | 729 W/m² | - |
| 1777907025 | 21.11° C | 35% | 1011.7 hPa | 0 mm | - | 718 W/m² | - |
| 1777906723 | 20.56° C | 35% | 1011.7 hPa | 0 mm | - | 705 W/m² | - |
| 1777906419 | 20° C | 37% | 1011.5 hPa | 0 mm | - | 689 W/m² | - |
| 1777906116 | 20.56° C | 38% | 1011.4 hPa | 0 mm | - | 675 W/m² | - |
| 1777905812 | 20° C | 39% | 1011.4 hPa | 0 mm | - | 658 W/m² | - |
| 1777905510 | 19.44° C | 42% | 1011.3 hPa | 0 mm | - | 646 W/m² | - |
| 1777905206 | 19.44° C | 44% | 1011.2 hPa | 0 mm | - | 632 W/m² | - |
| 1777904904 | 19.44° C | 44% | 1011.3 hPa | 0 mm | - | 613 W/m² | - |
| 1777904601 | 18.89° C | 45% | 1011.3 hPa | 0 mm | - | 597 W/m² | - |
| 1777904298 | 18.33° C | 44% | 1011.4 hPa | 0 mm | - | 583 W/m² | - |
| 1777903995 | 18.33° C | 45% | 1011.4 hPa | 0 mm | - | 414 W/m² | - |
| 1777903692 | 17.22° C | 52% | 1011.3 hPa | 0 mm | - | 470 W/m² | - |
| 1777903388 | 16.67° C | 52% | 1011.4 hPa | 0 mm | - | 178 W/m² | - |
| 1777903085 | 16.67° C | 53% | 1011.3 hPa | 0 mm | - | 62 W/m² | - |
| 1777902781 | 16.67° C | 52% | 1011.2 hPa | 0 mm | - | 60 W/m² | - |
| 1777902479 | 16.11° C | 53% | 1011.4 hPa | 0 mm | - | 46 W/m² | - |
| 1777902175 | 15.56° C | 57% | 1011.1 hPa | 0 mm | - | 51 W/m² | - |
| 1777901873 | 15.56° C | 58% | 1011.1 hPa | 0 mm | - | 46 W/m² | - |
| 1777901570 | 15° C | 59% | 1011.2 hPa | 0 mm | - | 76 W/m² | - |
| 1777901268 | 14.44° C | 60% | 1011.3 hPa | 0 mm | - | 83 W/m² | - |
| 1777900965 | 14.44° C | 61% | 1011.4 hPa | 0 mm | - | 68 W/m² | - |
* Rain latest hour (hover to see other rain measurements)
** Current wind speed in m/s (hover to see current wind gust speed)